sensor_id;sensor_type;location;lat;lon;timestamp;pressure;altitude;pressure_sealevel;temperature;humidity
54808;BME280;40708;50.364;7.550;2022-12-29T00:01:23;99582.78;;;12.37;100.00
54808;BME280;40708;50.364;7.550;2022-12-29T00:03:48;99588.19;;;12.33;100.00
54808;BME280;40708;50.364;7.550;2022-12-29T00:06:14;99584.59;;;12.35;100.00
54808;BME280;40708;50.364;7.550;2022-12-29T00:08:39;99580.09;;;12.39;100.00
54808;BME280;40708;50.364;7.550;2022-12-29T00:11:14;99574.69;;;12.42;100.00
54808;BME280;40708;50.364;7.550;2022-12-29T00:13:39;99573.69;;;12.47;100.00
54808;BME280;40708;50.364;7.550;2022-12-29T00:16:24;99577.34;;;12.42;100.00
54808;BME280;40708;50.364;7.550;2022-12-29T00:18:49;99573.81;;;12.43;100.00
54808;BME280;40708;50.364;7.550;2022-12-29T00:21:16;99575.00;;;12.28;100.00
54808;BME280;40708;50.364;7.550;2022-12-29T00:24:01;99573.13;;;12.33;100.00
54808;BME280;40708;50.364;7.550;2022-12-29T00:27:09;99564.38;;;12.27;100.00
54808;BME280;40708;50.364;7.550;2022-12-29T00:29:53;99559.00;;;12.30;100.00
54808;BME280;40708;50.364;7.550;2022-12-29T00:32:37;99567.16;;;12.22;100.00
54808;BME280;40708;50.364;7.550;2022-12-29T00:35:30;99571.59;;;12.22;100.00
54808;BME280;40708;50.364;7.550;2022-12-29T00:37:59;99569.03;;;12.17;100.00
54808;BME280;40708;50.364;7.550;2022-12-29T00:40:45;99570.81;;;12.15;100.00
54808;BME280;40708;50.364;7.550;2022-12-29T00:43:29;99557.53;;;12.15;100.00
54808;BME280;40708;50.364;7.550;2022-12-29T00:46:13;99544.16;;;12.18;100.00
54808;BME280;40708;50.364;7.550;2022-12-29T00:48:38;99543.44;;;12.12;100.00
54808;BME280;40708;50.364;7.550;2022-12-29T00:51:22;99538.13;;;12.12;100.00
54808;BME280;40708;50.364;7.550;2022-12-29T00:53:47;99547.88;;;12.10;100.00
54808;BME280;40708;50.364;7.550;2022-12-29T00:56:12;99543.44;;;12.10;100.00
54808;BME280;40708;50.364;7.550;2022-12-29T00:58:38;99553.19;;;12.10;100.00
54808;BME280;40708;50.364;7.550;2022-12-29T01:01:05;99542.66;;;12.05;100.00
54808;BME280;40708;50.364;7.550;2022-12-29T01:03:30;99535.47;;;12.10;100.00
54808;BME280;40708;50.364;7.550;2022-12-29T01:06:00;99544.38;;;12.08;100.00
54808;BME280;40708;50.364;7.550;2022-12-29T01:08:27;99548.88;;;12.04;100.00
54808;BME280;40708;50.364;7.550;2022-12-29T01:11:04;99525.09;;;11.98;100.00
54808;BME280;40708;50.364;7.550;2022-12-29T01:13:30;99534.75;;;12.04;100.00
54808;BME280;40708;50.364;7.550;2022-12-29T01:15:55;99536.34;;;12.11;100.00
54808;BME280;40708;50.364;7.550;2022-12-29T01:18:22;99533.69;;;12.11;100.00
54808;BME280;40708;50.364;7.550;2022-12-29T01:20:48;99544.50;;;12.03;100.00
54808;BME280;40708;50.364;7.550;2022-12-29T01:23:13;99548.09;;;12.01;100.00
54808;BME280;40708;50.364;7.550;2022-12-29T01:25:39;99557.06;;;11.93;100.00
54808;BME280;40708;50.364;7.550;2022-12-29T01:28:04;99554.44;;;11.92;100.00
54808;BME280;40708;50.364;7.550;2022-12-29T01:30:30;99540.22;;;11.93;100.00
54808;BME280;40708;50.364;7.550;2022-12-29T01:32:55;99548.09;;;12.01;100.00
54808;BME280;40708;50.364;7.550;2022-12-29T01:35:21;99558.78;;;11.96;100.00
54808;BME280;40708;50.364;7.550;2022-12-29T01:37:46;99534.78;;;12.01;100.00
54808;BME280;40708;50.364;7.550;2022-12-29T01:40:11;99528.47;;;12.06;100.00
54808;BME280;40708;50.364;7.550;2022-12-29T01:42:37;99513.38;;;12.07;100.00
54808;BME280;40708;50.364;7.550;2022-12-29T01:45:09;99510.59;;;12.13;100.00
54808;BME280;40708;50.364;7.550;2022-12-29T01:47:51;99513.25;;;12.14;100.00
54808;BME280;40708;50.364;7.550;2022-12-29T01:50:25;99508.78;;;12.16;100.00
54808;BME280;40708;50.364;7.550;2022-12-29T01:53:05;99506.06;;;12.18;100.00
54808;BME280;40708;50.364;7.550;2022-12-29T01:55:36;99503.34;;;12.21;100.00
54808;BME280;40708;50.364;7.550;2022-12-29T01:58:04;99509.59;;;12.20;100.00
54808;BME280;40708;50.364;7.550;2022-12-29T02:00:31;99504.13;;;12.26;100.00
54808;BME280;40708;50.364;7.550;2022-12-29T02:02:57;99499.63;;;12.29;100.00
54808;BME280;40708;50.364;7.550;2022-12-29T02:05:50;99494.22;;;12.32;100.00
54808;BME280;40708;50.364;7.550;2022-12-29T02:08:19;99489.78;;;12.33;100.00
54808;BME280;40708;50.364;7.550;2022-12-29T02:10:45;99488.03;;;12.33;100.00
54808;BME280;40708;50.364;7.550;2022-12-29T02:13:15;99493.34;;;12.32;100.00
54808;BME280;40708;50.364;7.550;2022-12-29T02:26:32;99480.09;;;12.30;100.00
54808;BME280;40708;50.364;7.550;2022-12-29T02:29:42;99472.06;;;12.32;100.00
54808;BME280;40708;50.364;7.550;2022-12-29T02:32:30;99469.41;;;12.33;100.00
54808;BME280;40708;50.364;7.550;2022-12-29T02:35:25;99458.00;;;12.27;100.00
54808;BME280;40708;50.364;7.550;2022-12-29T02:38:17;99456.88;;;12.37;100.00
54808;BME280;40708;50.364;7.550;2022-12-29T02:40:54;99466.63;;;12.38;100.00
54808;BME280;40708;50.364;7.550;2022-12-29T02:43:26;99456.00;;;12.38;100.00
54808;BME280;40708;50.364;7.550;2022-12-29T02:46:02;99459.34;;;12.46;100.00
54808;BME280;40708;50.364;7.550;2022-12-29T02:48:41;99454.09;;;12.43;100.00
54808;BME280;40708;50.364;7.550;2022-12-29T02:51:16;99453.28;;;12.39;100.00
54808;BME280;40708;50.364;7.550;2022-12-29T02:53:44;99440.94;;;12.37;100.00
54808;BME280;40708;50.364;7.550;2022-12-29T02:56:28;99448.78;;;12.43;100.00
54808;BME280;40708;50.364;7.550;2022-12-29T02:58:53;99451.50;;;12.41;100.00
54808;BME280;40708;50.364;7.550;2022-12-29T03:01:40;99448.81;;;12.41;100.00
54808;BME280;40708;50.364;7.550;2022-12-29T03:13:29;99443.44;;;12.05;100.00
54808;BME280;40708;50.364;7.550;2022-12-29T03:16:24;99439.19;;;11.96;100.00
54808;BME280;40708;50.364;7.550;2022-12-29T03:22:12;99444.56;;;11.93;100.00
54808;BME280;40708;50.364;7.550;2022-12-29T03:25:02;99445.38;;;11.97;100.00
54808;BME280;40708;50.364;7.550;2022-12-29T03:28:11;99448.72;;;12.06;100.00
54808;BME280;40708;50.364;7.550;2022-12-29T03:30:30;99434.56;;;12.06;100.00
54808;BME280;40708;50.364;7.550;2022-12-29T03:33:01;99434.56;;;12.06;100.00
54808;BME280;40708;50.364;7.550;2022-12-29T03:35:30;99420.44;;;12.02;100.00
54808;BME280;40708;50.364;7.550;2022-12-29T03:40:38;99416.78;;;12.08;100.00
54808;BME280;40708;50.364;7.550;2022-12-29T03:43:05;99414.88;;;12.13;100.00
54808;BME280;40708;50.364;7.550;2022-12-29T03:45:30;99413.94;;;12.17;100.00
54808;BME280;40708;50.364;7.550;2022-12-29T03:47:55;99407.78;;;12.13;100.00
54808;BME280;40708;50.364;7.550;2022-12-29T03:50:21;99407.63;;;12.21;100.00
54808;BME280;40708;50.364;7.550;2022-12-29T03:52:46;99406.66;;;12.23;100.00
54808;BME280;40708;50.364;7.550;2022-12-29T03:55:11;99404.88;;;12.25;100.00
54808;BME280;40708;50.364;7.550;2022-12-29T03:57:37;99398.59;;;12.28;100.00
54808;BME280;40708;50.364;7.550;2022-12-29T04:00:04;99407.38;;;12.31;100.00
54808;BME280;40708;50.364;7.550;2022-12-29T04:02:30;99405.72;;;12.27;100.00
54808;BME280;40708;50.364;7.550;2022-12-29T04:04:55;99409.19;;;12.29;100.00
54808;BME280;40708;50.364;7.550;2022-12-29T04:07:20;99400.41;;;12.26;100.00
54808;BME280;40708;50.364;7.550;2022-12-29T04:09:45;99404.88;;;12.25;100.00
54808;BME280;40708;50.364;7.550;2022-12-29T04:12:11;99400.34;;;12.29;100.00
54808;BME280;40708;50.364;7.550;2022-12-29T04:14:36;99400.41;;;12.26;100.00
54808;BME280;40708;50.364;7.550;2022-12-29T04:17:01;99399.50;;;12.28;100.00
54808;BME280;40708;50.364;7.550;2022-12-29T04:19:27;99403.03;;;12.27;100.00
54808;BME280;40708;50.364;7.550;2022-12-29T04:21:52;99401.22;;;12.29;100.00
54808;BME280;40708;50.364;7.550;2022-12-29T04:24:17;99394.31;;;12.21;100.00
54808;BME280;40708;50.364;7.550;2022-12-29T04:26:42;99390.84;;;12.19;100.00
54808;BME280;40708;50.364;7.550;2022-12-29T04:29:08;99399.00;;;12.10;100.00
54808;BME280;40708;50.364;7.550;2022-12-29T04:31:33;99409.56;;;12.14;100.00
54808;BME280;40708;50.364;7.550;2022-12-29T04:33:58;99406.03;;;12.12;100.00
54808;BME280;40708;50.364;7.550;2022-12-29T04:36:25;99394.63;;;12.09;100.00
54808;BME280;40708;50.364;7.550;2022-12-29T04:38:50;99400.00;;;12.06;100.00
54808;BME280;40708;50.364;7.550;2022-12-29T04:41:16;99396.09;;;12.22;100.00
54808;BME280;40708;50.364;7.550;2022-12-29T04:43:41;99390.50;;;12.32;100.00
54808;BME280;40708;50.364;7.550;2022-12-29T04:46:06;99387.72;;;12.37;100.00
54808;BME280;40708;50.364;7.550;2022-12-29T04:48:32;99385.81;;;12.43;100.00
54808;BME280;40708;50.364;7.550;2022-12-29T04:50:57;99378.66;;;12.45;100.00
54808;BME280;40708;50.364;7.550;2022-12-29T04:53:22;99388.44;;;12.45;100.00
54808;BME280;40708;50.364;7.550;2022-12-29T04:55:49;99391.06;;;12.46;100.00
54808;BME280;40708;50.364;7.550;2022-12-29T04:58:15;99385.78;;;12.45;100.00
54808;BME280;40708;50.364;7.550;2022-12-29T05:00:40;99390.25;;;12.43;100.00
54808;BME280;40708;50.364;7.550;2022-12-29T05:03:05;99382.94;;;12.52;100.00
54808;BME280;40708;50.364;7.550;2022-12-29T05:05:30;99382.16;;;12.47;100.00
54808;BME280;40708;50.364;7.550;2022-12-29T05:07:56;99378.59;;;12.48;100.00
54808;BME280;40708;50.364;7.550;2022-12-29T05:10:21;99385.75;;;12.46;100.00
54808;BME280;40708;50.364;7.550;2022-12-29T05:12:46;99382.22;;;12.46;100.00
54808;BME280;40708;50.364;7.550;2022-12-29T05:15:12;99385.56;;;12.54;100.00
54808;BME280;40708;50.364;7.550;2022-12-29T05:17:37;99393.59;;;12.51;100.00
54808;BME280;40708;50.364;7.550;2022-12-29T05:20:04;99391.78;;;12.53;100.00
54808;BME280;40708;50.364;7.550;2022-12-29T05:22:30;99388.34;;;12.48;100.00
54808;BME280;40708;50.364;7.550;2022-12-29T05:24:55;99389.31;;;12.45;100.00
54808;BME280;40708;50.364;7.550;2022-12-29T05:27:20;99376.84;;;12.47;100.00
54808;BME280;40708;50.364;7.550;2022-12-29T05:29:46;99387.47;;;12.47;100.00
54808;BME280;40708;50.364;7.550;2022-12-29T05:32:11;99375.00;;;12.51;100.00
54808;BME280;40708;50.364;7.550;2022-12-29T05:34:36;99377.72;;;12.48;100.00
54808;BME280;40708;50.364;7.550;2022-12-29T05:37:02;99380.44;;;12.46;100.00
54808;BME280;40708;50.364;7.550;2022-12-29T05:39:28;99384.03;;;12.44;100.00
54808;BME280;40708;50.364;7.550;2022-12-29T05:41:53;99380.38;;;12.48;100.00
54808;BME280;40708;50.364;7.550;2022-12-29T05:44:18;99381.41;;;12.42;100.00
54808;BME280;40708;50.364;7.550;2022-12-29T05:46:44;99381.25;;;12.48;100.00
54808;BME280;40708;50.364;7.550;2022-12-29T05:49:09;99392.97;;;12.41;100.00
54808;BME280;40708;50.364;7.550;2022-12-29T05:51:34;99395.44;;;12.49;100.00
54808;BME280;40708;50.364;7.550;2022-12-29T05:54:00;99382.13;;;12.49;100.00
54808;BME280;40708;50.364;7.550;2022-12-29T05:56:25;99378.53;;;12.51;100.00
54808;BME280;40708;50.364;7.550;2022-12-29T05:58:50;99378.75;;;12.42;100.00
54808;BME280;40708;50.364;7.550;2022-12-29T06:01:16;99381.44;;;12.41;100.00
54808;BME280;40708;50.364;7.550;2022-12-29T06:03:41;99378.66;;;12.45;100.00
54808;BME280;40708;50.364;7.550;2022-12-29T06:06:06;99375.31;;;12.39;100.00
54808;BME280;40708;50.364;7.550;2022-12-29T06:08:32;99373.41;;;12.42;100.00
54808;BME280;40708;50.364;7.550;2022-12-29T06:10:57;99377.78;;;12.45;100.00
54808;BME280;40708;50.364;7.550;2022-12-29T06:13:22;99369.13;;;12.37;100.00
54808;BME280;40708;50.364;7.550;2022-12-29T06:15:49;99370.06;;;12.34;100.00
54808;BME280;40708;50.364;7.550;2022-12-29T06:18:14;99354.03;;;12.37;100.00
54808;BME280;40708;50.364;7.550;2022-12-29T06:20:40;99354.28;;;12.28;100.00
54808;BME280;40708;50.364;7.550;2022-12-29T06:23:05;99363.09;;;12.30;100.00
54808;BME280;40708;50.364;7.550;2022-12-29T06:25:31;99369.28;;;12.31;100.00
54808;BME280;40708;50.364;7.550;2022-12-29T06:27:57;99369.97;;;12.39;100.00
54808;BME280;40708;50.364;7.550;2022-12-29T06:30:23;99364.69;;;12.37;100.00
54808;BME280;40708;50.364;7.550;2022-12-29T06:32:48;99370.81;;;12.39;100.00
54808;BME280;40708;50.364;7.550;2022-12-29T06:35:13;99359.16;;;12.46;100.00
54808;BME280;40708;50.364;7.550;2022-12-29T06:37:39;99369.75;;;12.48;100.00
54808;BME280;40708;50.364;7.550;2022-12-29T06:40:04;99370.75;;;12.44;100.00
54808;BME280;40708;50.364;7.550;2022-12-29T06:42:30;99364.53;;;12.43;100.00
54808;BME280;40708;50.364;7.550;2022-12-29T06:44:55;99378.84;;;12.38;100.00
54808;BME280;40708;50.364;7.550;2022-12-29T06:47:23;99370.13;;;12.33;100.00
54808;BME280;40708;50.364;7.550;2022-12-29T06:49:48;99377.34;;;12.26;100.00
54808;BME280;40708;50.364;7.550;2022-12-29T06:52:14;99381.78;;;12.26;100.00
54808;BME280;40708;50.364;7.550;2022-12-29T06:54:39;99373.78;;;12.27;100.00
54808;BME280;40708;50.364;7.550;2022-12-29T06:57:04;99378.91;;;12.36;100.00
54808;BME280;40708;50.364;7.550;2022-12-29T06:59:30;99381.53;;;12.38;100.00
54808;BME280;40708;50.364;7.550;2022-12-29T07:01:55;99382.41;;;12.38;100.00
54808;BME280;40708;50.364;7.550;2022-12-29T07:04:20;99375.31;;;12.39;100.00
54808;BME280;40708;50.364;7.550;2022-12-29T07:06:46;99386.78;;;12.39;100.00
54808;BME280;40708;50.364;7.550;2022-12-29T07:09:11;99380.44;;;12.45;100.00
54808;BME280;40708;50.364;7.550;2022-12-29T07:11:36;99445.41;;;12.35;100.00
54808;BME280;40708;50.364;7.550;2022-12-29T07:14:02;99402.22;;;12.24;100.00
54808;BME280;40708;50.364;7.550;2022-12-29T07:16:28;99401.59;;;12.14;100.00
54808;BME280;40708;50.364;7.550;2022-12-29T07:18:55;99429.34;;;12.01;100.00
54808;BME280;40708;50.364;7.550;2022-12-29T07:21:21;99443.03;;;11.81;100.00
54808;BME280;40708;50.364;7.550;2022-12-29T07:23:46;99460.13;;;11.67;100.00
54808;BME280;40708;50.364;7.550;2022-12-29T07:26:13;99480.75;;;11.54;100.00
54808;BME280;40708;50.364;7.550;2022-12-29T07:28:39;99495.34;;;11.30;100.00
54808;BME280;40708;50.364;7.550;2022-12-29T07:31:05;99522.22;;;11.11;100.00
54808;BME280;40708;50.364;7.550;2022-12-29T07:33:32;99549.00;;;10.96;100.00
54808;BME280;40708;50.364;7.550;2022-12-29T07:35:58;99558.81;;;10.91;100.00
54808;BME280;40708;50.364;7.550;2022-12-29T07:38:23;99585.34;;;10.92;100.00
54808;BME280;40708;50.364;7.550;2022-12-29T07:40:49;99578.13;;;11.00;100.00
54808;BME280;40708;50.364;7.550;2022-12-29T07:43:14;99582.47;;;11.06;100.00
54808;BME280;40708;50.364;7.550;2022-12-29T07:45:39;99572.72;;;11.06;100.00
54808;BME280;40708;50.364;7.550;2022-12-29T07:48:05;99577.09;;;11.10;100.00
54808;BME280;40708;50.364;7.550;2022-12-29T07:50:33;99581.56;;;11.07;100.00
54808;BME280;40708;50.364;7.550;2022-12-29T07:52:59;99567.50;;;11.02;100.00
54808;BME280;40708;50.364;7.550;2022-12-29T07:55:24;99555.00;;;11.08;100.00
54808;BME280;40708;50.364;7.550;2022-12-29T07:57:49;99543.56;;;11.05;100.00
54808;BME280;40708;50.364;7.550;2022-12-29T08:00:15;99548.81;;;11.08;100.00
54808;BME280;40708;50.364;7.550;2022-12-29T08:02:40;99544.41;;;11.08;100.00
54808;BME280;40708;50.364;7.550;2022-12-29T08:05:06;99537.19;;;11.15;100.00
54808;BME280;40708;50.364;7.550;2022-12-29T08:07:31;99535.47;;;11.14;100.00
54808;BME280;40708;50.364;7.550;2022-12-29T08:09:56;99534.53;;;11.16;100.00
54808;BME280;40708;50.364;7.550;2022-12-29T08:12:22;99538.06;;;11.17;100.00
54808;BME280;40708;50.364;7.550;2022-12-29T08:14:48;99544.31;;;11.13;100.00
54808;BME280;40708;50.364;7.550;2022-12-29T08:17:13;99545.25;;;11.10;100.00
54808;BME280;40708;50.364;7.550;2022-12-29T08:19:38;99548.69;;;11.17;100.00
54808;BME280;40708;50.364;7.550;2022-12-29T08:22:04;99547.00;;;11.11;100.00
54808;BME280;40708;50.364;7.550;2022-12-29T08:24:29;99546.81;;;11.22;100.00
54808;BME280;40708;50.364;7.550;2022-12-29T08:26:54;99553.06;;;11.18;100.00
54808;BME280;40708;50.364;7.550;2022-12-29T08:29:20;99553.81;;;11.26;100.00
54808;BME280;40708;50.364;7.550;2022-12-29T08:31:46;99549.34;;;11.29;100.00
54808;BME280;40708;50.364;7.550;2022-12-29T08:34:12;99543.06;;;11.33;100.00
54808;BME280;40708;50.364;7.550;2022-12-29T08:36:37;99548.31;;;11.38;100.00
54808;BME280;40708;50.364;7.550;2022-12-29T08:39:02;99562.41;;;11.42;100.00
54808;BME280;40708;50.364;7.550;2022-12-29T08:41:28;99577.44;;;11.43;100.00
54808;BME280;40708;50.364;7.550;2022-12-29T08:43:53;99573.78;;;11.50;100.00
54808;BME280;40708;50.364;7.550;2022-12-29T08:46:19;99576.50;;;11.47;100.00
54808;BME280;40708;50.364;7.550;2022-12-29T08:48:44;99584.28;;;11.56;100.00
54808;BME280;40708;50.364;7.550;2022-12-29T08:51:10;99578.06;;;11.58;100.00
54808;BME280;40708;50.364;7.550;2022-12-29T08:53:35;99574.47;;;11.62;100.00
54808;BME280;40708;50.364;7.550;2022-12-29T08:56:01;99581.59;;;11.60;100.00
54808;BME280;40708;50.364;7.550;2022-12-29T08:58:27;99578.00;;;11.63;100.00
54808;BME280;40708;50.364;7.550;2022-12-29T09:00:54;99582.28;;;11.71;100.00
54808;BME280;40708;50.364;7.550;2022-12-29T09:03:19;99598.28;;;11.68;100.00
54808;BME280;40708;50.364;7.550;2022-12-29T09:05:48;99593.69;;;11.79;100.00
54808;BME280;40708;50.364;7.550;2022-12-29T09:08:14;99576.81;;;11.80;100.00
54808;BME280;40708;50.364;7.550;2022-12-29T09:10:39;99572.13;;;11.94;100.00
54808;BME280;40708;50.364;7.550;2022-12-29T09:13:04;99574.78;;;11.93;100.00
54808;BME280;40708;50.364;7.550;2022-12-29T09:15:29;99586.19;;;12.00;100.00
54808;BME280;40708;50.364;7.550;2022-12-29T09:17:55;99579.34;;;11.86;100.00
54808;BME280;40708;50.364;7.550;2022-12-29T09:20:20;99579.31;;;11.88;100.00
54808;BME280;40708;50.364;7.550;2022-12-29T09:22:47;99583.59;;;11.97;100.00
54808;BME280;40708;50.364;7.550;2022-12-29T09:25:13;99583.28;;;12.13;100.00
54808;BME280;40708;50.364;7.550;2022-12-29T09:27:39;99593.19;;;12.05;100.00
54808;BME280;40708;50.364;7.550;2022-12-29T09:30:06;99593.03;;;12.13;100.00
54808;BME280;40708;50.364;7.550;2022-12-29T09:32:32;99588.53;;;12.16;100.00
54808;BME280;40708;50.364;7.550;2022-12-29T09:34:58;99591.16;;;12.18;100.00
54808;BME280;40708;50.364;7.550;2022-12-29T09:37:23;99590.22;;;12.20;100.00
54808;BME280;40708;50.364;7.550;2022-12-29T09:39:48;99593.53;;;12.33;100.00
54808;BME280;40708;50.364;7.550;2022-12-29T09:42:29;99589.16;;;12.30;100.00
54808;BME280;40708;50.364;7.550;2022-12-29T09:45:28;99586.25;;;12.41;100.00
54808;BME280;40708;50.364;7.550;2022-12-29T09:47:55;99587.56;;;12.20;100.00
54808;BME280;40708;50.364;7.550;2022-12-29T09:50:32;99589.41;;;12.17;100.00
54808;BME280;40708;50.364;7.550;2022-12-29T09:53:17;99591.03;;;12.24;100.00
54808;BME280;40708;50.364;7.550;2022-12-29T09:55:48;99585.78;;;12.21;100.00
54808;BME280;40708;50.364;7.550;2022-12-29T09:58:30;99592.97;;;12.17;100.00
54808;BME280;40708;50.364;7.550;2022-12-29T10:03:58;99608.03;;;12.15;100.00
54808;BME280;40708;50.364;7.550;2022-12-29T10:25:22;99609.16;;;12.49;100.00
54808;BME280;40708;50.364;7.550;2022-12-29T10:27:52;99597.28;;;12.66;100.00
54808;BME280;40708;50.364;7.550;2022-12-29T10:30:18;99587.81;;;12.51;100.00
54808;BME280;40708;50.364;7.550;2022-12-29T10:32:50;99598.50;;;12.48;100.00
54808;BME280;40708;50.364;7.550;2022-12-29T10:35:20;99625.84;;;12.12;100.00
54808;BME280;40708;50.364;7.550;2022-12-29T10:40:37;99663.06;;;11.60;100.00
54808;BME280;40708;50.364;7.550;2022-12-29T10:43:18;99664.41;;;11.86;100.00
54808;BME280;40708;50.364;7.550;2022-12-29T10:45:46;99676.66;;;11.95;100.00
54808;BME280;40708;50.364;7.550;2022-12-29T10:48:21;99682.88;;;11.94;100.00
54808;BME280;40708;50.364;7.550;2022-12-29T10:50:48;99671.59;;;11.81;100.00
54808;BME280;40708;50.364;7.550;2022-12-29T10:53:21;99668.13;;;11.75;100.00
54808;BME280;40708;50.364;7.550;2022-12-29T10:55:48;99673.44;;;11.76;100.00
54808;BME280;40708;50.364;7.550;2022-12-29T10:58:14;99677.00;;;11.75;100.00
54808;BME280;40708;50.364;7.550;2022-12-29T11:00:41;99669.16;;;11.65;100.00
54808;BME280;40708;50.364;7.550;2022-12-29T11:06:25;99668.88;;;11.84;100.00
54808;BME280;40708;50.364;7.550;2022-12-29T11:08:57;99655.59;;;11.84;100.00
54808;BME280;40708;50.364;7.550;2022-12-29T11:11:32;99653.69;;;11.91;100.00
54808;BME280;40708;50.364;7.550;2022-12-29T11:14:07;99652.56;;;12.04;100.00
54808;BME280;40708;50.364;7.550;2022-12-29T11:16:35;99652.00;;;11.85;100.00
54808;BME280;40708;50.364;7.550;2022-12-29T11:19:01;99667.78;;;11.96;100.00
54808;BME280;40708;50.364;7.550;2022-12-29T11:21:32;99662.38;;;12.01;100.00
54808;BME280;40708;50.364;7.550;2022-12-29T11:24:00;99660.78;;;11.90;100.00
54808;BME280;40708;50.364;7.550;2022-12-29T11:26:28;99663.34;;;11.97;100.00
54808;BME280;40708;50.364;7.550;2022-12-29T11:31:31;99643.69;;;12.05;100.00
54808;BME280;40708;50.364;7.550;2022-12-29T11:34:06;99650.59;;;12.15;100.00
54808;BME280;40708;50.364;7.550;2022-12-29T11:36:34;99655.78;;;12.21;100.00
54808;BME280;40708;50.364;7.550;2022-12-29T11:39:00;99659.44;;;12.17;100.00
54808;BME280;40708;50.364;7.550;2022-12-29T11:41:28;99662.94;;;12.19;100.00
54808;BME280;40708;50.364;7.550;2022-12-29T11:44:00;99650.22;;;12.35;100.00
54808;BME280;40708;50.364;7.550;2022-12-29T11:46:30;99645.69;;;12.40;100.00
54808;BME280;40708;50.364;7.550;2022-12-29T11:48:57;99653.91;;;12.26;100.00
54808;BME280;40708;50.364;7.550;2022-12-29T11:54:03;99660.41;;;12.12;100.00
54808;BME280;40708;50.364;7.550;2022-12-29T11:56:38;99643.44;;;12.19;100.00
54808;BME280;40708;50.364;7.550;2022-12-29T12:01:52;99648.91;;;12.10;100.00
54808;BME280;40708;50.364;7.550;2022-12-29T12:04:21;99656.84;;;12.13;100.00
54808;BME280;40708;50.364;7.550;2022-12-29T12:07:17;99651.75;;;12.01;100.00
54808;BME280;40708;50.364;7.550;2022-12-29T12:09:53;99651.53;;;12.13;100.00
54808;BME280;40708;50.364;7.550;2022-12-29T12:12:30;99647.81;;;12.23;100.00
54808;BME280;40708;50.364;7.550;2022-12-29T12:14:58;99639.06;;;12.16;100.00
54808;BME280;40708;50.364;7.550;2022-12-29T12:20:24;99641.19;;;12.42;100.00
54808;BME280;40708;50.364;7.550;2022-12-29T12:26:11;99631.53;;;12.81;100.00
54808;BME280;40708;50.364;7.550;2022-12-29T12:29:16;99630.41;;;12.92;100.00
54808;BME280;40708;50.364;7.550;2022-12-29T12:31:54;99631.34;;;12.88;100.00
54808;BME280;40708;50.364;7.550;2022-12-29T12:34:37;99624.69;;;13.10;100.00
54808;BME280;40708;50.364;7.550;2022-12-29T12:52:08;99640.25;;;12.46;100.00
54808;BME280;40708;50.364;7.550;2022-12-29T13:00:46;99640.97;;;12.54;100.00
54808;BME280;40708;50.364;7.550;2022-12-29T13:03:44;99639.13;;;12.56;100.00
54808;BME280;40708;50.364;7.550;2022-12-29T13:09:29;99643.59;;;12.55;100.00
54808;BME280;40708;50.364;7.550;2022-12-29T13:12:10;99641.91;;;12.51;100.00
54808;BME280;40708;50.364;7.550;2022-12-29T13:14:55;99641.06;;;12.49;100.00
54808;BME280;40708;50.364;7.550;2022-12-29T13:17:45;99635.88;;;12.43;100.00
54808;BME280;40708;50.364;7.550;2022-12-29T13:23:06;99642.72;;;12.55;100.00
54808;BME280;40708;50.364;7.550;2022-12-29T13:25:41;99654.03;;;12.65;100.00
54808;BME280;40708;50.364;7.550;2022-12-29T13:28:17;99656.97;;;12.52;100.00
54808;BME280;40708;50.364;7.550;2022-12-29T13:36:26;99660.91;;;12.33;100.00
54808;BME280;40708;50.364;7.550;2022-12-29T13:39:40;99651.97;;;12.36;100.00
54808;BME280;40708;50.364;7.550;2022-12-29T13:42:09;99657.03;;;12.48;100.00
54808;BME280;40708;50.364;7.550;2022-12-29T13:47:37;99662.41;;;12.45;100.00
54808;BME280;40708;50.364;7.550;2022-12-29T13:50:10;99669.91;;;12.25;100.00
54808;BME280;40708;50.364;7.550;2022-12-29T13:52:44;99665.53;;;12.21;100.00
54808;BME280;40708;50.364;7.550;2022-12-29T13:55:35;99674.66;;;12.09;100.00
54808;BME280;40708;50.364;7.550;2022-12-29T13:58:26;99666.66;;;12.09;100.00
54808;BME280;40708;50.364;7.550;2022-12-29T14:06:24;99674.94;;;11.92;100.00
54808;BME280;40708;50.364;7.550;2022-12-29T14:08:52;99669.13;;;11.71;100.00
54808;BME280;40708;50.364;7.550;2022-12-29T14:11:21;99674.44;;;11.71;100.00
54808;BME280;40708;50.364;7.550;2022-12-29T14:13:49;99676.19;;;11.69;100.00
54808;BME280;40708;50.364;7.550;2022-12-29T14:16:30;99672.72;;;11.65;100.00
54808;BME280;40708;50.364;7.550;2022-12-29T14:19:04;99690.59;;;11.53;100.00
54808;BME280;40708;50.364;7.550;2022-12-29T14:21:31;99680.00;;;11.50;100.00
54808;BME280;40708;50.364;7.550;2022-12-29T14:24:27;99688.91;;;11.47;100.00
54808;BME280;40708;50.364;7.550;2022-12-29T14:26:53;99694.13;;;11.53;100.00
54808;BME280;40708;50.364;7.550;2022-12-29T14:31:46;99690.47;;;11.62;100.00
54808;BME280;40708;50.364;7.550;2022-12-29T14:44:29;99701.34;;;11.45;100.00
54808;BME280;40708;50.364;7.550;2022-12-29T14:46:55;99696.97;;;11.43;100.00
54808;BME280;40708;50.364;7.550;2022-12-29T14:49:25;99701.56;;;11.31;100.00
54808;BME280;40708;50.364;7.550;2022-12-29T14:51:52;99694.53;;;11.26;100.00
54808;BME280;40708;50.364;7.550;2022-12-29T14:54:42;99711.44;;;11.20;100.00
54808;BME280;40708;50.364;7.550;2022-12-29T14:57:15;99707.09;;;11.16;100.00
54808;BME280;40708;50.364;7.550;2022-12-29T14:59:44;99716.00;;;11.11;100.00
54808;BME280;40708;50.364;7.550;2022-12-29T15:02:18;99720.53;;;11.03;100.00
54808;BME280;40708;50.364;7.550;2022-12-29T15:04:46;99718.06;;;10.89;100.00
54808;BME280;40708;50.364;7.550;2022-12-29T15:07:12;99719.06;;;10.81;100.00